createdAt,value
2023-02-16T00:00:59.515Z,37.91
2023-02-16T00:03:25.913Z,37.96
2023-02-16T00:05:52.210Z,37.98
2023-02-16T00:08:18.603Z,38.01
2023-02-16T00:10:44.946Z,38.05
2023-02-16T00:13:11.330Z,38.07
2023-02-16T00:15:37.708Z,38.07
2023-02-16T00:18:04.079Z,38.09
2023-02-16T00:20:30.455Z,38.13
2023-02-16T00:22:56.810Z,38.19
2023-02-16T00:25:23.154Z,38.18
2023-02-16T00:27:49.557Z,38.17
2023-02-16T00:30:15.916Z,38.18
2023-02-16T00:32:42.282Z,38.22
2023-02-16T00:35:08.629Z,38.27
2023-02-16T00:37:35.014Z,38.28
2023-02-16T00:40:01.397Z,38.25
2023-02-16T00:42:27.777Z,38.29
2023-02-16T00:44:55.319Z,38.28
2023-02-16T00:47:20.520Z,38.33
2023-02-16T00:49:46.880Z,38.37
2023-02-16T00:52:13.282Z,38.35
2023-02-16T00:54:39.631Z,38.43
2023-02-16T00:57:06.004Z,38.35
2023-02-16T00:59:32.367Z,38.40
2023-02-16T01:01:58.741Z,38.42
2023-02-16T01:04:25.104Z,38.46
2023-02-16T01:06:51.457Z,38.53
2023-02-16T01:09:17.826Z,38.57
2023-02-16T01:11:44.212Z,38.54
2023-02-16T01:14:10.553Z,38.56
2023-02-16T01:16:36.951Z,38.58
2023-02-16T01:19:03.296Z,38.61
2023-02-16T01:21:29.664Z,38.64
2023-02-16T01:23:56.016Z,38.64
2023-02-16T01:26:22.398Z,38.68
2023-02-16T01:28:48.747Z,38.67
2023-02-16T01:31:15.229Z,38.72
2023-02-16T01:33:41.476Z,38.74
2023-02-16T01:36:07.855Z,38.76
2023-02-16T01:38:34.212Z,38.81
2023-02-16T01:41:00.648Z,38.79
2023-02-16T01:43:26.954Z,38.82
2023-02-16T01:45:53.336Z,38.84
2023-02-16T01:48:19.676Z,38.84
2023-02-16T01:50:46.096Z,38.89
2023-02-16T01:53:12.423Z,38.89
2023-02-16T01:55:38.805Z,38.94
2023-02-16T01:58:05.152Z,38.91
2023-02-16T02:00:31.540Z,38.92
2023-02-16T02:02:57.935Z,38.95
2023-02-16T02:05:24.293Z,39.02
2023-02-16T02:07:50.670Z,38.98
2023-02-16T02:10:17.053Z,39.00
2023-02-16T02:12:43.408Z,38.96
2023-02-16T02:15:09.818Z,39.03
2023-02-16T02:17:36.161Z,39.03
2023-02-16T02:20:02.545Z,39.04
2023-02-16T02:22:28.923Z,39.01
2023-02-16T02:24:55.275Z,39.04
2023-02-16T02:27:21.619Z,39.07
2023-02-16T02:29:48.020Z,39.08
2023-02-16T02:32:14.466Z,39.08
2023-02-16T02:34:40.746Z,39.14
2023-02-16T02:37:07.116Z,39.12
2023-02-16T02:39:33.494Z,39.14
2023-02-16T02:41:59.835Z,39.18
2023-02-16T02:44:26.271Z,39.19
2023-02-16T02:46:52.641Z,39.20
2023-02-16T02:49:19.004Z,39.20
2023-02-16T02:51:45.410Z,39.19
2023-02-16T02:54:11.800Z,39.20
2023-02-16T02:56:38.130Z,39.19
2023-02-16T02:59:04.529Z,39.23
2023-02-16T03:01:30.861Z,39.23
2023-02-16T03:03:57.252Z,39.25
2023-02-16T03:06:23.599Z,39.29
2023-02-16T03:08:49.976Z,39.15
2023-02-16T03:11:16.330Z,38.89
2023-02-16T03:13:42.716Z,38.71
2023-02-16T03:16:09.139Z,38.51
2023-02-16T03:18:35.439Z,38.26
2023-02-16T03:21:02.107Z,38.14
2023-02-16T03:23:28.148Z,37.96
2023-02-16T03:25:54.494Z,37.79
2023-02-16T03:28:20.868Z,37.58
2023-02-16T03:30:47.330Z,37.39
2023-02-16T03:33:13.589Z,37.25
2023-02-16T03:35:39.932Z,37.15
2023-02-16T03:38:06.305Z,37.04
2023-02-16T03:40:32.645Z,37.00
2023-02-16T03:42:59.030Z,36.73
2023-02-16T03:45:25.363Z,36.65
2023-02-16T03:47:51.751Z,36.71
2023-02-16T03:50:18.161Z,36.99
2023-02-16T03:52:44.490Z,36.84
2023-02-16T03:55:10.845Z,36.75
2023-02-16T03:57:37.337Z,36.65
2023-02-16T04:00:03.678Z,36.60
2023-02-16T04:02:30.100Z,36.46
2023-02-16T04:04:56.408Z,36.37
2023-02-16T04:07:22.795Z,36.30
2023-02-16T04:09:49.137Z,36.06
2023-02-16T04:12:15.522Z,36.11
2023-02-16T04:14:43.704Z,36.05
2023-02-16T04:17:08.313Z,35.93
2023-02-16T04:19:34.645Z,35.85
2023-02-16T04:22:01.028Z,35.77
2023-02-16T04:24:27.374Z,35.68
2023-02-16T04:26:53.768Z,35.55
2023-02-16T04:29:20.125Z,35.43
2023-02-16T04:31:46.765Z,35.41
2023-02-16T04:34:12.884Z,35.33
2023-02-16T04:36:39.264Z,35.17
2023-02-16T04:39:05.603Z,35.08
2023-02-16T04:41:31.987Z,34.96
2023-02-16T04:43:58.322Z,34.87
2023-02-16T04:46:24.748Z,34.70
2023-02-16T04:48:51.036Z,34.55
2023-02-16T04:51:17.434Z,34.30
2023-02-16T04:53:43.771Z,34.10
2023-02-16T04:56:10.143Z,33.83
2023-02-16T04:58:36.519Z,33.79
2023-02-16T05:01:03.519Z,33.76
2023-02-16T05:03:29.276Z,33.75
2023-02-16T05:05:55.651Z,33.81
2023-02-16T05:08:21.989Z,33.57
2023-02-16T05:10:49.758Z,33.27
2023-02-16T05:13:14.711Z,33.13
2023-02-16T05:15:42.613Z,32.77
2023-02-16T05:18:07.459Z,32.68
2023-02-16T05:20:33.829Z,32.76
2023-02-16T05:23:00.175Z,32.63
